sensor_id;sensor_type;location;lat;lon;timestamp;P1;durP1;ratioP1;P2;durP2;ratioP2
38529;SDS011;24301;54.332;48.386;2024-02-21T00:00:51;30.33;;;13.33;;
38529;SDS011;24301;54.332;48.386;2024-02-21T00:03:17;34.53;;;14.93;;
38529;SDS011;24301;54.332;48.386;2024-02-21T00:05:43;30.30;;;14.00;;
38529;SDS011;24301;54.332;48.386;2024-02-21T00:08:09;25.57;;;13.17;;
38529;SDS011;24301;54.332;48.386;2024-02-21T00:10:35;33.60;;;15.83;;
38529;SDS011;24301;54.332;48.386;2024-02-21T00:13:01;35.63;;;18.93;;
38529;SDS011;24301;54.332;48.386;2024-02-21T00:15:27;36.63;;;18.70;;
38529;SDS011;24301;54.332;48.386;2024-02-21T00:17:53;49.80;;;22.13;;
38529;SDS011;24301;54.332;48.386;2024-02-21T00:20:19;29.10;;;16.67;;
38529;SDS011;24301;54.332;48.386;2024-02-21T00:22:45;26.63;;;14.10;;
38529;SDS011;24301;54.332;48.386;2024-02-21T00:25:11;29.23;;;13.90;;
38529;SDS011;24301;54.332;48.386;2024-02-21T00:27:38;25.63;;;12.60;;
38529;SDS011;24301;54.332;48.386;2024-02-21T00:30:04;24.23;;;10.07;;
38529;SDS011;24301;54.332;48.386;2024-02-21T00:32:31;17.77;;;10.83;;
38529;SDS011;24301;54.332;48.386;2024-02-21T00:34:59;25.30;;;12.93;;
38529;SDS011;24301;54.332;48.386;2024-02-21T00:37:25;26.20;;;13.50;;
38529;SDS011;24301;54.332;48.386;2024-02-21T00:39:51;24.03;;;13.57;;
38529;SDS011;24301;54.332;48.386;2024-02-21T00:42:17;22.87;;;13.03;;
38529;SDS011;24301;54.332;48.386;2024-02-21T00:44:43;17.37;;;10.10;;
38529;SDS011;24301;54.332;48.386;2024-02-21T00:47:10;22.57;;;11.40;;
38529;SDS011;24301;54.332;48.386;2024-02-21T00:49:35;25.80;;;13.23;;
38529;SDS011;24301;54.332;48.386;2024-02-21T00:52:01;23.90;;;13.03;;
38529;SDS011;24301;54.332;48.386;2024-02-21T00:54:27;24.80;;;13.77;;
38529;SDS011;24301;54.332;48.386;2024-02-21T00:56:53;27.13;;;14.93;;
38529;SDS011;24301;54.332;48.386;2024-02-21T00:59:19;27.17;;;15.67;;
38529;SDS011;24301;54.332;48.386;2024-02-21T01:01:45;26.73;;;13.97;;
38529;SDS011;24301;54.332;48.386;2024-02-21T01:04:11;22.83;;;12.37;;
38529;SDS011;24301;54.332;48.386;2024-02-21T01:06:37;22.93;;;12.50;;
38529;SDS011;24301;54.332;48.386;2024-02-21T01:09:03;23.60;;;13.87;;
38529;SDS011;24301;54.332;48.386;2024-02-21T01:11:29;24.40;;;12.57;;
38529;SDS011;24301;54.332;48.386;2024-02-21T01:13:55;24.90;;;11.77;;
38529;SDS011;24301;54.332;48.386;2024-02-21T01:16:21;21.53;;;11.20;;
38529;SDS011;24301;54.332;48.386;2024-02-21T01:18:47;19.67;;;10.53;;
38529;SDS011;24301;54.332;48.386;2024-02-21T01:21:12;26.30;;;12.67;;
38529;SDS011;24301;54.332;48.386;2024-02-21T01:23:38;19.27;;;10.83;;
38529;SDS011;24301;54.332;48.386;2024-02-21T01:26:05;27.20;;;13.13;;
38529;SDS011;24301;54.332;48.386;2024-02-21T01:28:33;24.23;;;12.40;;
38529;SDS011;24301;54.332;48.386;2024-02-21T01:31:00;25.83;;;13.23;;
38529;SDS011;24301;54.332;48.386;2024-02-21T01:33:26;23.97;;;13.03;;
38529;SDS011;24301;54.332;48.386;2024-02-21T01:35:52;31.03;;;15.53;;
38529;SDS011;24301;54.332;48.386;2024-02-21T01:38:18;33.30;;;17.07;;
38529;SDS011;24301;54.332;48.386;2024-02-21T01:40:44;32.17;;;16.80;;
38529;SDS011;24301;54.332;48.386;2024-02-21T01:43:19;29.47;;;15.50;;
38529;SDS011;24301;54.332;48.386;2024-02-21T01:45:52;26.30;;;14.33;;
38529;SDS011;24301;54.332;48.386;2024-02-21T01:48:20;28.73;;;15.60;;
38529;SDS011;24301;54.332;48.386;2024-02-21T01:50:49;28.93;;;14.97;;
38529;SDS011;24301;54.332;48.386;2024-02-21T01:53:22;28.77;;;13.63;;
38529;SDS011;24301;54.332;48.386;2024-02-21T01:55:50;24.57;;;13.57;;
38529;SDS011;24301;54.332;48.386;2024-02-21T01:58:17;23.97;;;13.33;;
38529;SDS011;24301;54.332;48.386;2024-02-21T02:00:44;29.30;;;14.10;;
38529;SDS011;24301;54.332;48.386;2024-02-21T02:03:12;29.87;;;12.70;;
38529;SDS011;24301;54.332;48.386;2024-02-21T02:05:45;28.07;;;14.53;;
38529;SDS011;24301;54.332;48.386;2024-02-21T02:08:13;26.37;;;11.80;;
38529;SDS011;24301;54.332;48.386;2024-02-21T02:10:42;25.40;;;12.03;;
38529;SDS011;24301;54.332;48.386;2024-02-21T02:13:09;25.47;;;13.93;;
38529;SDS011;24301;54.332;48.386;2024-02-21T02:15:43;21.97;;;10.57;;
38529;SDS011;24301;54.332;48.386;2024-02-21T02:18:14;17.40;;;10.07;;
38529;SDS011;24301;54.332;48.386;2024-02-21T02:20:40;17.87;;;9.67;;
38529;SDS011;24301;54.332;48.386;2024-02-21T02:23:08;18.03;;;9.77;;
38529;SDS011;24301;54.332;48.386;2024-02-21T02:25:56;12.27;;;8.23;;
38529;SDS011;24301;54.332;48.386;2024-02-21T02:28:23;13.20;;;6.83;;
38529;SDS011;24301;54.332;48.386;2024-02-21T02:30:49;13.60;;;7.63;;
38529;SDS011;24301;54.332;48.386;2024-02-21T02:33:16;9.47;;;6.90;;
38529;SDS011;24301;54.332;48.386;2024-02-21T02:35:45;14.03;;;7.53;;
38529;SDS011;24301;54.332;48.386;2024-02-21T02:38:11;16.50;;;9.00;;
38529;SDS011;24301;54.332;48.386;2024-02-21T02:40:38;22.50;;;11.00;;
38529;SDS011;24301;54.332;48.386;2024-02-21T02:43:06;17.27;;;9.93;;
38529;SDS011;24301;54.332;48.386;2024-02-21T02:45:32;18.80;;;8.20;;
38529;SDS011;24301;54.332;48.386;2024-02-21T02:47:58;13.47;;;8.33;;
38529;SDS011;24301;54.332;48.386;2024-02-21T02:50:25;19.83;;;9.93;;
38529;SDS011;24301;54.332;48.386;2024-02-21T02:52:52;17.57;;;7.93;;
38529;SDS011;24301;54.332;48.386;2024-02-21T02:55:20;16.20;;;7.07;;
38529;SDS011;24301;54.332;48.386;2024-02-21T02:57:47;14.63;;;7.07;;
38529;SDS011;24301;54.332;48.386;2024-02-21T03:00:13;16.17;;;8.10;;
38529;SDS011;24301;54.332;48.386;2024-02-21T03:02:40;15.87;;;8.53;;
38529;SDS011;24301;54.332;48.386;2024-02-21T03:05:13;19.87;;;8.37;;
38529;SDS011;24301;54.332;48.386;2024-02-21T03:07:40;16.47;;;8.90;;
38529;SDS011;24301;54.332;48.386;2024-02-21T03:10:07;17.03;;;8.97;;
38529;SDS011;24301;54.332;48.386;2024-02-21T03:12:33;12.97;;;8.20;;
38529;SDS011;24301;54.332;48.386;2024-02-21T03:14:59;16.83;;;10.43;;
38529;SDS011;24301;54.332;48.386;2024-02-21T03:17:25;21.73;;;10.13;;
38529;SDS011;24301;54.332;48.386;2024-02-21T03:19:52;17.73;;;9.17;;
38529;SDS011;24301;54.332;48.386;2024-02-21T03:22:18;20.33;;;9.07;;
38529;SDS011;24301;54.332;48.386;2024-02-21T03:24:44;15.97;;;9.77;;
38529;SDS011;24301;54.332;48.386;2024-02-21T03:27:10;15.27;;;8.40;;
38529;SDS011;24301;54.332;48.386;2024-02-21T03:29:36;14.77;;;8.70;;
38529;SDS011;24301;54.332;48.386;2024-02-21T03:32:01;19.20;;;8.87;;
38529;SDS011;24301;54.332;48.386;2024-02-21T03:34:27;14.60;;;7.90;;
38529;SDS011;24301;54.332;48.386;2024-02-21T03:36:53;17.97;;;8.93;;
38529;SDS011;24301;54.332;48.386;2024-02-21T03:39:19;18.90;;;9.47;;
38529;SDS011;24301;54.332;48.386;2024-02-21T03:41:46;19.90;;;9.63;;
38529;SDS011;24301;54.332;48.386;2024-02-21T03:44:12;17.37;;;9.20;;
38529;SDS011;24301;54.332;48.386;2024-02-21T03:46:38;16.93;;;8.50;;
38529;SDS011;24301;54.332;48.386;2024-02-21T03:49:04;16.03;;;8.60;;
38529;SDS011;24301;54.332;48.386;2024-02-21T03:51:30;16.53;;;8.57;;
38529;SDS011;24301;54.332;48.386;2024-02-21T03:53:56;16.20;;;8.17;;
38529;SDS011;24301;54.332;48.386;2024-02-21T03:56:22;14.10;;;8.43;;
38529;SDS011;24301;54.332;48.386;2024-02-21T03:58:48;16.30;;;8.63;;
38529;SDS011;24301;54.332;48.386;2024-02-21T04:01:15;15.37;;;8.27;;
38529;SDS011;24301;54.332;48.386;2024-02-21T04:03:41;14.97;;;8.50;;
38529;SDS011;24301;54.332;48.386;2024-02-21T04:06:08;15.33;;;7.67;;
38529;SDS011;24301;54.332;48.386;2024-02-21T04:08:35;14.07;;;8.50;;
38529;SDS011;24301;54.332;48.386;2024-02-21T04:11:01;15.30;;;8.30;;
38529;SDS011;24301;54.332;48.386;2024-02-21T04:13:27;14.37;;;8.53;;
38529;SDS011;24301;54.332;48.386;2024-02-21T04:15:53;16.73;;;8.67;;
38529;SDS011;24301;54.332;48.386;2024-02-21T04:18:18;13.67;;;8.07;;
38529;SDS011;24301;54.332;48.386;2024-02-21T04:20:44;13.30;;;7.60;;
38529;SDS011;24301;54.332;48.386;2024-02-21T04:23:10;11.70;;;8.07;;
38529;SDS011;24301;54.332;48.386;2024-02-21T04:25:36;13.00;;;7.63;;
38529;SDS011;24301;54.332;48.386;2024-02-21T04:28:02;15.97;;;8.17;;
38529;SDS011;24301;54.332;48.386;2024-02-21T04:30:28;13.93;;;8.40;;
38529;SDS011;24301;54.332;48.386;2024-02-21T04:32:54;19.03;;;8.70;;
38529;SDS011;24301;54.332;48.386;2024-02-21T04:35:20;17.63;;;8.20;;
38529;SDS011;24301;54.332;48.386;2024-02-21T04:37:46;13.63;;;8.23;;
38529;SDS011;24301;54.332;48.386;2024-02-21T04:40:12;14.90;;;7.47;;
38529;SDS011;24301;54.332;48.386;2024-02-21T04:42:39;10.77;;;7.70;;
38529;SDS011;24301;54.332;48.386;2024-02-21T04:45:05;11.53;;;7.00;;
38529;SDS011;24301;54.332;48.386;2024-02-21T04:47:31;14.40;;;7.47;;
38529;SDS011;24301;54.332;48.386;2024-02-21T04:49:57;11.77;;;7.43;;
38529;SDS011;24301;54.332;48.386;2024-02-21T04:52:23;16.03;;;8.40;;
38529;SDS011;24301;54.332;48.386;2024-02-21T04:54:49;12.50;;;7.83;;
38529;SDS011;24301;54.332;48.386;2024-02-21T04:57:15;14.97;;;6.97;;
38529;SDS011;24301;54.332;48.386;2024-02-21T04:59:44;14.10;;;8.33;;
38529;SDS011;24301;54.332;48.386;2024-02-21T05:02:11;12.03;;;7.27;;
38529;SDS011;24301;54.332;48.386;2024-02-21T05:04:37;13.50;;;7.37;;
38529;SDS011;24301;54.332;48.386;2024-02-21T05:07:04;14.53;;;8.73;;
38529;SDS011;24301;54.332;48.386;2024-02-21T05:09:30;15.33;;;7.57;;
38529;SDS011;24301;54.332;48.386;2024-02-21T05:11:56;14.00;;;7.43;;
38529;SDS011;24301;54.332;48.386;2024-02-21T05:14:25;20.97;;;10.10;;
38529;SDS011;24301;54.332;48.386;2024-02-21T05:16:52;19.27;;;8.73;;
38529;SDS011;24301;54.332;48.386;2024-02-21T05:19:18;14.43;;;7.67;;
38529;SDS011;24301;54.332;48.386;2024-02-21T05:21:44;15.63;;;9.07;;
38529;SDS011;24301;54.332;48.386;2024-02-21T05:24:10;15.90;;;8.90;;
38529;SDS011;24301;54.332;48.386;2024-02-21T05:26:36;18.30;;;8.73;;
38529;SDS011;24301;54.332;48.386;2024-02-21T05:29:02;16.33;;;9.70;;
38529;SDS011;24301;54.332;48.386;2024-02-21T05:31:42;17.67;;;10.10;;
38529;SDS011;24301;54.332;48.386;2024-02-21T05:34:28;16.97;;;9.27;;
38529;SDS011;24301;54.332;48.386;2024-02-21T05:36:54;16.33;;;9.83;;
38529;SDS011;24301;54.332;48.386;2024-02-21T05:39:20;12.60;;;7.60;;
38529;SDS011;24301;54.332;48.386;2024-02-21T05:41:48;17.30;;;8.63;;
38529;SDS011;24301;54.332;48.386;2024-02-21T05:44:15;16.57;;;9.07;;
38529;SDS011;24301;54.332;48.386;2024-02-21T05:46:42;15.87;;;8.10;;
38529;SDS011;24301;54.332;48.386;2024-02-21T05:49:08;13.77;;;7.87;;
38529;SDS011;24301;54.332;48.386;2024-02-21T05:51:35;17.83;;;10.70;;
38529;SDS011;24301;54.332;48.386;2024-02-21T05:54:01;14.93;;;7.47;;
38529;SDS011;24301;54.332;48.386;2024-02-21T05:56:27;11.53;;;7.17;;
38529;SDS011;24301;54.332;48.386;2024-02-21T05:58:53;12.07;;;7.77;;
38529;SDS011;24301;54.332;48.386;2024-02-21T06:01:19;11.50;;;7.47;;
38529;SDS011;24301;54.332;48.386;2024-02-21T06:03:47;14.30;;;7.77;;
38529;SDS011;24301;54.332;48.386;2024-02-21T06:06:13;11.17;;;7.13;;
38529;SDS011;24301;54.332;48.386;2024-02-21T06:08:40;15.33;;;8.43;;
38529;SDS011;24301;54.332;48.386;2024-02-21T06:11:06;12.23;;;6.93;;
38529;SDS011;24301;54.332;48.386;2024-02-21T06:13:32;10.97;;;6.97;;
38529;SDS011;24301;54.332;48.386;2024-02-21T06:15:58;11.07;;;7.03;;
38529;SDS011;24301;54.332;48.386;2024-02-21T06:18:23;11.23;;;6.60;;
38529;SDS011;24301;54.332;48.386;2024-02-21T06:20:49;16.03;;;6.83;;
38529;SDS011;24301;54.332;48.386;2024-02-21T06:23:15;9.23;;;5.97;;
38529;SDS011;24301;54.332;48.386;2024-02-21T06:25:44;9.90;;;5.73;;
38529;SDS011;24301;54.332;48.386;2024-02-21T06:28:11;9.70;;;6.30;;
38529;SDS011;24301;54.332;48.386;2024-02-21T06:30:37;10.17;;;5.73;;
38529;SDS011;24301;54.332;48.386;2024-02-21T06:33:03;10.33;;;6.30;;
38529;SDS011;24301;54.332;48.386;2024-02-21T06:35:29;9.73;;;6.13;;
38529;SDS011;24301;54.332;48.386;2024-02-21T06:37:58;10.10;;;7.30;;
38529;SDS011;24301;54.332;48.386;2024-02-21T06:40:27;10.40;;;6.97;;
38529;SDS011;24301;54.332;48.386;2024-02-21T06:42:53;13.80;;;8.97;;
38529;SDS011;24301;54.332;48.386;2024-02-21T06:45:19;13.30;;;8.50;;
38529;SDS011;24301;54.332;48.386;2024-02-21T06:47:48;14.90;;;10.17;;
38529;SDS011;24301;54.332;48.386;2024-02-21T06:50:13;16.70;;;9.97;;
38529;SDS011;24301;54.332;48.386;2024-02-21T06:52:41;12.53;;;9.70;;
38529;SDS011;24301;54.332;48.386;2024-02-21T06:55:07;17.03;;;10.27;;
38529;SDS011;24301;54.332;48.386;2024-02-21T06:57:33;13.23;;;10.40;;
38529;SDS011;24301;54.332;48.386;2024-02-21T06:59:59;13.53;;;9.67;;
38529;SDS011;24301;54.332;48.386;2024-02-21T07:02:24;13.57;;;10.53;;
38529;SDS011;24301;54.332;48.386;2024-02-21T07:04:50;13.97;;;10.10;;
38529;SDS011;24301;54.332;48.386;2024-02-21T07:07:16;12.80;;;10.07;;
38529;SDS011;24301;54.332;48.386;2024-02-21T07:09:42;14.00;;;10.30;;
38529;SDS011;24301;54.332;48.386;2024-02-21T07:12:08;14.97;;;10.67;;
38529;SDS011;24301;54.332;48.386;2024-02-21T07:14:35;13.03;;;9.57;;
38529;SDS011;24301;54.332;48.386;2024-02-21T07:17:04;13.63;;;10.35;;
38529;SDS011;24301;54.332;48.386;2024-02-21T07:19:30;11.27;;;9.25;;
38529;SDS011;24301;54.332;48.386;2024-02-21T07:21:56;12.75;;;9.45;;
38529;SDS011;24301;54.332;48.386;2024-02-21T07:24:22;10.98;;;8.55;;
38529;SDS011;24301;54.332;48.386;2024-02-21T07:26:48;13.13;;;8.95;;
38529;SDS011;24301;54.332;48.386;2024-02-21T07:29:14;10.38;;;8.25;;
38529;SDS011;24301;54.332;48.386;2024-02-21T07:31:43;12.20;;;8.43;;
38529;SDS011;24301;54.332;48.386;2024-02-21T07:34:12;13.05;;;8.23;;
38529;SDS011;24301;54.332;48.386;2024-02-21T07:36:38;9.65;;;7.75;;
38529;SDS011;24301;54.332;48.386;2024-02-21T07:39:04;10.52;;;8.40;;
38529;SDS011;24301;54.332;48.386;2024-02-21T07:41:30;9.25;;;7.72;;
38529;SDS011;24301;54.332;48.386;2024-02-21T07:43:56;10.50;;;7.50;;
38529;SDS011;24301;54.332;48.386;2024-02-21T07:46:22;11.48;;;7.35;;
38529;SDS011;24301;54.332;48.386;2024-02-21T07:48:48;9.73;;;7.55;;
38529;SDS011;24301;54.332;48.386;2024-02-21T07:51:14;9.27;;;7.60;;
38529;SDS011;24301;54.332;48.386;2024-02-21T07:53:44;12.45;;;8.38;;
38529;SDS011;24301;54.332;48.386;2024-02-21T07:56:11;11.02;;;7.65;;
38529;SDS011;24301;54.332;48.386;2024-02-21T07:58:37;9.27;;;7.47;;
38529;SDS011;24301;54.332;48.386;2024-02-21T08:01:03;9.45;;;7.53;;
38529;SDS011;24301;54.332;48.386;2024-02-21T08:03:29;10.60;;;7.32;;
38529;SDS011;24301;54.332;48.386;2024-02-21T08:05:55;9.60;;;6.82;;
38529;SDS011;24301;54.332;48.386;2024-02-21T08:08:20;12.05;;;6.93;;
38529;SDS011;24301;54.332;48.386;2024-02-21T08:10:48;10.35;;;6.75;;
38529;SDS011;24301;54.332;48.386;2024-02-21T08:13:14;8.05;;;5.53;;
38529;SDS011;24301;54.332;48.386;2024-02-21T08:15:40;10.68;;;6.78;;
38529;SDS011;24301;54.332;48.386;2024-02-21T08:18:07;8.02;;;6.60;;
38529;SDS011;24301;54.332;48.386;2024-02-21T08:20:33;10.40;;;6.77;;
38529;SDS011;24301;54.332;48.386;2024-02-21T08:22:59;10.87;;;7.27;;
38529;SDS011;24301;54.332;48.386;2024-02-21T08:25:25;12.83;;;7.87;;
38529;SDS011;24301;54.332;48.386;2024-02-21T08:27:51;11.83;;;7.20;;
38529;SDS011;24301;54.332;48.386;2024-02-21T08:30:17;11.03;;;6.63;;
38529;SDS011;24301;54.332;48.386;2024-02-21T08:32:43;10.83;;;7.87;;
38529;SDS011;24301;54.332;48.386;2024-02-21T08:35:09;14.73;;;8.57;;
38529;SDS011;24301;54.332;48.386;2024-02-21T08:37:35;17.73;;;9.43;;
38529;SDS011;24301;54.332;48.386;2024-02-21T08:40:00;16.63;;;9.17;;
38529;SDS011;24301;54.332;48.386;2024-02-21T08:42:35;13.10;;;9.77;;
38529;SDS011;24301;54.332;48.386;2024-02-21T08:45:01;14.67;;;8.43;;
38529;SDS011;24301;54.332;48.386;2024-02-21T08:47:29;14.67;;;9.17;;
38529;SDS011;24301;54.332;48.386;2024-02-21T08:49:54;11.50;;;8.17;;
38529;SDS011;24301;54.332;48.386;2024-02-21T08:52:20;12.00;;;7.50;;
38529;SDS011;24301;54.332;48.386;2024-02-21T08:54:46;12.03;;;7.93;;
38529;SDS011;24301;54.332;48.386;2024-02-21T08:57:12;12.80;;;8.73;;
38529;SDS011;24301;54.332;48.386;2024-02-21T08:59:39;12.23;;;7.53;;
38529;SDS011;24301;54.332;48.386;2024-02-21T09:02:06;13.43;;;8.90;;
38529;SDS011;24301;54.332;48.386;2024-02-21T09:04:32;9.93;;;7.30;;
38529;SDS011;24301;54.332;48.386;2024-02-21T09:06:58;15.63;;;8.37;;
38529;SDS011;24301;54.332;48.386;2024-02-21T09:09:25;12.10;;;8.30;;
38529;SDS011;24301;54.332;48.386;2024-02-21T09:11:50;15.00;;;7.93;;
38529;SDS011;24301;54.332;48.386;2024-02-21T09:14:16;11.63;;;7.47;;
38529;SDS011;24301;54.332;48.386;2024-02-21T09:16:42;12.47;;;7.57;;
38529;SDS011;24301;54.332;48.386;2024-02-21T09:19:09;12.50;;;8.23;;
38529;SDS011;24301;54.332;48.386;2024-02-21T09:21:36;12.70;;;9.43;;
38529;SDS011;24301;54.332;48.386;2024-02-21T09:24:03;14.33;;;8.50;;
38529;SDS011;24301;54.332;48.386;2024-02-21T09:26:30;18.33;;;10.33;;
38529;SDS011;24301;54.332;48.386;2024-02-21T09:28:56;13.63;;;9.60;;
38529;SDS011;24301;54.332;48.386;2024-02-21T09:31:22;11.20;;;7.73;;
38529;SDS011;24301;54.332;48.386;2024-02-21T09:33:48;15.23;;;9.67;;
38529;SDS011;24301;54.332;48.386;2024-02-21T09:36:13;13.33;;;9.13;;
38529;SDS011;24301;54.332;48.386;2024-02-21T09:38:40;12.07;;;8.67;;
38529;SDS011;24301;54.332;48.386;2024-02-21T09:43:45;13.13;;;9.03;;
38529;SDS011;24301;54.332;48.386;2024-02-21T09:46:13;14.43;;;9.60;;
38529;SDS011;24301;54.332;48.386;2024-02-21T09:51:13;13.33;;;8.60;;
38529;SDS011;24301;54.332;48.386;2024-02-21T09:53:40;13.17;;;8.50;;
38529;SDS011;24301;54.332;48.386;2024-02-21T09:56:08;13.43;;;8.83;;
38529;SDS011;24301;54.332;48.386;2024-02-21T09:58:34;15.53;;;9.33;;
38529;SDS011;24301;54.332;48.386;2024-02-21T10:01:01;15.10;;;10.33;;
38529;SDS011;24301;54.332;48.386;2024-02-21T10:03:26;13.20;;;8.23;;
38529;SDS011;24301;54.332;48.386;2024-02-21T10:05:52;13.47;;;8.37;;
38529;SDS011;24301;54.332;48.386;2024-02-21T10:08:19;11.93;;;7.87;;
38529;SDS011;24301;54.332;48.386;2024-02-21T10:10:45;14.77;;;8.70;;
38529;SDS011;24301;54.332;48.386;2024-02-21T10:13:24;11.70;;;8.00;;
38529;SDS011;24301;54.332;48.386;2024-02-21T10:16:05;13.27;;;7.87;;
38529;SDS011;24301;54.332;48.386;2024-02-21T10:18:31;15.50;;;7.80;;
38529;SDS011;24301;54.332;48.386;2024-02-21T10:21:04;15.80;;;8.50;;
38529;SDS011;24301;54.332;48.386;2024-02-21T10:23:48;11.27;;;7.77;;
38529;SDS011;24301;54.332;48.386;2024-02-21T10:26:15;16.70;;;8.87;;
38529;SDS011;24301;54.332;48.386;2024-02-21T10:28:42;16.53;;;9.63;;
38529;SDS011;24301;54.332;48.386;2024-02-21T10:31:31;13.27;;;8.00;;
38529;SDS011;24301;54.332;48.386;2024-02-21T10:33:59;14.93;;;7.93;;
38529;SDS011;24301;54.332;48.386;2024-02-21T10:36:29;12.70;;;8.65;;
38529;SDS011;24301;54.332;48.386;2024-02-21T10:38:55;18.10;;;8.40;;
38529;SDS011;24301;54.332;48.386;2024-02-21T10:41:22;15.27;;;8.63;;
38529;SDS011;24301;54.332;48.386;2024-02-21T10:43:49;12.17;;;8.10;;
38529;SDS011;24301;54.332;48.386;2024-02-21T10:46:19;12.00;;;7.67;;
38529;SDS011;24301;54.332;48.386;2024-02-21T10:48:46;12.53;;;8.53;;
38529;SDS011;24301;54.332;48.386;2024-02-21T10:51:17;13.70;;;7.77;;
38529;SDS011;24301;54.332;48.386;2024-02-21T10:56:34;14.73;;;7.67;;
38529;SDS011;24301;54.332;48.386;2024-02-21T10:59:04;13.23;;;8.60;;
38529;SDS011;24301;54.332;48.386;2024-02-21T11:01:31;12.53;;;7.20;;
38529;SDS011;24301;54.332;48.386;2024-02-21T11:04:07;20.83;;;8.23;;
38529;SDS011;24301;54.332;48.386;2024-02-21T11:06:36;12.67;;;7.20;;
38529;SDS011;24301;54.332;48.386;2024-02-21T11:11:34;11.73;;;7.20;;
38529;SDS011;24301;54.332;48.386;2024-02-21T11:14:37;12.73;;;7.67;;
38529;SDS011;24301;54.332;48.386;2024-02-21T11:17:02;12.17;;;6.73;;
38529;SDS011;24301;54.332;48.386;2024-02-21T11:19:29;13.10;;;7.37;;
38529;SDS011;24301;54.332;48.386;2024-02-21T11:21:57;12.80;;;8.17;;
38529;SDS011;24301;54.332;48.386;2024-02-21T11:26:54;14.83;;;7.20;;
38529;SDS011;24301;54.332;48.386;2024-02-21T11:29:23;13.20;;;8.27;;
38529;SDS011;24301;54.332;48.386;2024-02-21T11:31:51;14.53;;;8.90;;
38529;SDS011;24301;54.332;48.386;2024-02-21T11:34:18;18.90;;;9.33;;
38529;SDS011;24301;54.332;48.386;2024-02-21T11:36:48;18.27;;;9.50;;
38529;SDS011;24301;54.332;48.386;2024-02-21T11:39:20;10.80;;;6.97;;
38529;SDS011;24301;54.332;48.386;2024-02-21T11:44:45;12.00;;;7.07;;
38529;SDS011;24301;54.332;48.386;2024-02-21T11:47:11;10.37;;;7.13;;
38529;SDS011;24301;54.332;48.386;2024-02-21T11:49:42;11.10;;;6.40;;
38529;SDS011;24301;54.332;48.386;2024-02-21T11:52:11;11.37;;;6.47;;
38529;SDS011;24301;54.332;48.386;2024-02-21T11:54:40;12.17;;;8.00;;
38529;SDS011;24301;54.332;48.386;2024-02-21T11:57:07;14.27;;;6.50;;
38529;SDS011;24301;54.332;48.386;2024-02-21T11:59:33;20.57;;;7.83;;
38529;SDS011;24301;54.332;48.386;2024-02-21T12:02:02;9.43;;;6.30;;
38529;SDS011;24301;54.332;48.386;2024-02-21T12:04:29;12.53;;;6.87;;
38529;SDS011;24301;54.332;48.386;2024-02-21T12:06:59;13.60;;;7.03;;
38529;SDS011;24301;54.332;48.386;2024-02-21T12:09:25;12.50;;;7.57;;
38529;SDS011;24301;54.332;48.386;2024-02-21T12:11:58;13.97;;;7.23;;
38529;SDS011;24301;54.332;48.386;2024-02-21T12:14:26;15.27;;;8.57;;
38529;SDS011;24301;54.332;48.386;2024-02-21T12:16:53;12.00;;;7.77;;
38529;SDS011;24301;54.332;48.386;2024-02-21T12:19:20;15.53;;;8.70;;
38529;SDS011;24301;54.332;48.386;2024-02-21T12:21:47;12.87;;;7.83;;
38529;SDS011;24301;54.332;48.386;2024-02-21T12:24:16;16.13;;;9.07;;
38529;SDS011;24301;54.332;48.386;2024-02-21T12:26:51;14.93;;;8.70;;
38529;SDS011;24301;54.332;48.386;2024-02-21T12:29:21;19.20;;;9.70;;
38529;SDS011;24301;54.332;48.386;2024-02-21T12:31:48;14.67;;;9.23;;
38529;SDS011;24301;54.332;48.386;2024-02-21T12:34:15;16.83;;;10.30;;
38529;SDS011;24301;54.332;48.386;2024-02-21T12:36:41;17.27;;;10.77;;
38529;SDS011;24301;54.332;48.386;2024-02-21T12:39:13;15.30;;;9.30;;
38529;SDS011;24301;54.332;48.386;2024-02-21T12:41:40;15.53;;;9.60;;
38529;SDS011;24301;54.332;48.386;2024-02-21T12:44:08;15.97;;;9.37;;
38529;SDS011;24301;54.332;48.386;2024-02-21T12:46:34;15.53;;;8.50;;
38529;SDS011;24301;54.332;48.386;2024-02-21T12:49:01;18.57;;;10.70;;
38529;SDS011;24301;54.332;48.386;2024-02-21T12:51:28;12.87;;;8.03;;
38529;SDS011;24301;54.332;48.386;2024-02-21T12:53:54;15.73;;;9.53;;
38529;SDS011;24301;54.332;48.386;2024-02-21T12:56:21;17.87;;;9.53;;
38529;SDS011;24301;54.332;48.386;2024-02-21T12:58:46;15.17;;;9.17;;
38529;SDS011;24301;54.332;48.386;2024-02-21T13:01:12;14.73;;;9.60;;
38529;SDS011;24301;54.332;48.386;2024-02-21T13:03:38;18.63;;;11.07;;
38529;SDS011;24301;54.332;48.386;2024-02-21T13:06:05;16.27;;;10.33;;
38529;SDS011;24301;54.332;48.386;2024-02-21T13:08:36;18.37;;;11.83;;
38529;SDS011;24301;54.332;48.386;2024-02-21T13:11:02;19.67;;;11.60;;
38529;SDS011;24301;54.332;48.386;2024-02-21T13:13:28;19.63;;;9.70;;
38529;SDS011;24301;54.332;48.386;2024-02-21T13:15:54;17.50;;;8.87;;
38529;SDS011;24301;54.332;48.386;2024-02-21T13:18:20;28.20;;;9.53;;
38529;SDS011;24301;54.332;48.386;2024-02-21T13:20:45;12.40;;;7.63;;
38529;SDS011;24301;54.332;48.386;2024-02-21T13:23:11;14.50;;;8.63;;
38529;SDS011;24301;54.332;48.386;2024-02-21T13:25:38;14.30;;;8.27;;
38529;SDS011;24301;54.332;48.386;2024-02-21T13:28:04;11.43;;;7.63;;
38529;SDS011;24301;54.332;48.386;2024-02-21T13:30:30;14.53;;;7.93;;
38529;SDS011;24301;54.332;48.386;2024-02-21T13:32:56;15.13;;;7.47;;
38529;SDS011;24301;54.332;48.386;2024-02-21T13:35:22;13.47;;;8.27;;
38529;SDS011;24301;54.332;48.386;2024-02-21T13:37:48;13.30;;;8.23;;
38529;SDS011;24301;54.332;48.386;2024-02-21T13:40:14;15.23;;;9.43;;
38529;SDS011;24301;54.332;48.386;2024-02-21T13:42:40;13.73;;;8.67;;
38529;SDS011;24301;54.332;48.386;2024-02-21T13:45:06;15.33;;;9.77;;
38529;SDS011;24301;54.332;48.386;2024-02-21T13:47:33;14.67;;;8.30;;
38529;SDS011;24301;54.332;48.386;2024-02-21T13:49:59;12.80;;;8.33;;
38529;SDS011;24301;54.332;48.386;2024-02-21T13:52:25;17.33;;;8.07;;
38529;SDS011;24301;54.332;48.386;2024-02-21T13:54:53;17.40;;;9.47;;
38529;SDS011;24301;54.332;48.386;2024-02-21T13:57:19;13.03;;;7.43;;
38529;SDS011;24301;54.332;48.386;2024-02-21T13:59:45;16.60;;;8.57;;
38529;SDS011;24301;54.332;48.386;2024-02-21T14:02:11;13.20;;;7.50;;
38529;SDS011;24301;54.332;48.386;2024-02-21T14:04:37;16.00;;;7.70;;
38529;SDS011;24301;54.332;48.386;2024-02-21T14:07:03;13.83;;;8.10;;
38529;SDS011;24301;54.332;48.386;2024-02-21T14:09:29;10.63;;;7.00;;
38529;SDS011;24301;54.332;48.386;2024-02-21T14:11:55;10.37;;;6.37;;
38529;SDS011;24301;54.332;48.386;2024-02-21T14:14:21;15.03;;;7.73;;
38529;SDS011;24301;54.332;48.386;2024-02-21T14:16:47;10.00;;;5.93;;
38529;SDS011;24301;54.332;48.386;2024-02-21T14:19:15;14.70;;;6.83;;
38529;SDS011;24301;54.332;48.386;2024-02-21T14:21:42;15.03;;;7.63;;
38529;SDS011;24301;54.332;48.386;2024-02-21T14:24:08;14.10;;;7.17;;
38529;SDS011;24301;54.332;48.386;2024-02-21T14:26:34;16.20;;;7.40;;
38529;SDS011;24301;54.332;48.386;2024-02-21T14:29:01;15.70;;;9.37;;
38529;SDS011;24301;54.332;48.386;2024-02-21T14:31:29;18.57;;;8.63;;
38529;SDS011;24301;54.332;48.386;2024-02-21T14:33:56;18.83;;;8.73;;